Time,TemperatureF,DewpointF,PressureIn,WindDirection,WindDirectionDegrees,WindSpeedMPH,WindSpeedGustMPH,Humidity,HourlyPrecipIn,Conditions,Clouds,dailyrainin,SoftwareType,DateUTC
2013-04-08 00:00:00,52.9,34.3,30.06,North,357,0.0,2.7,49,0.00,,CLR,0.00,VWS V14.00,2013-04-08 04:00:00,
2013-04-08 00:01:00,52.9,34.3,30.06,North,357,0.0,0.0,49,0.00,,CLR,0.00,VWS V14.00,2013-04-08 04:01:00,
2013-04-08 00:07:00,53.1,33.9,30.06,North,357,0.0,0.0,48,0.00,,SCT100,0.00,VWS V14.00,2013-04-08 04:07:00,
2013-04-08 00:12:00,53.5,34.3,30.06,North,357,0.0,0.0,48,0.00,,SCT100,0.00,VWS V14.00,2013-04-08 04:12:00,
2013-04-08 00:17:00,53.3,34.1,30.06,North,357,0.0,0.0,48,0.00,,SCT100,0.00,VWS V14.00,2013-04-08 04:17:00,
2013-04-08 00:22:00,52.9,33.8,30.06,North,357,0.0,0.0,48,0.00,,SCT100,0.00,VWS V14.00,2013-04-08 04:22:00,
2013-04-08 00:27:00,52.7,34.1,30.06,North,5,0.0,2.7,49,0.00,,SCT100,0.00,VWS V14.00,2013-04-08 04:27:00,
2013-04-08 00:32:00,52.3,33.8,30.06,North,10,2.5,2.7,49,0.00,,SCT100,0.00,VWS V14.00,2013-04-08 04:32:00,
2013-04-08 00:37:00,52.2,34.1,30.06,ENE,78,3.0,3.8,50,0.00,,SCT100,0.00,VWS V14.00,2013-04-08 04:37:00,
2013-04-08 00:42:00,52.0,33.9,30.06,ENE,73,3.0,4.3,50,0.00,,SCT100,0.00,VWS V14.00,2013-04-08 04:42:00,
2013-04-08 00:47:00,52.0,34.4,30.06,ENE,70,3.4,3.8,51,0.00,,SCT100,0.00,VWS V14.00,2013-04-08 04:47:00,
2013-04-08 00:52:00,51.6,34.1,30.06,ENE,63,3.0,3.2,51,0.00,,SCT100,0.00,VWS V14.00,2013-04-08 04:52:00,
2013-04-08 00:57:00,51.2,33.8,30.06,ENE,63,2.5,2.7,51,0.00,,SCT100,0.00,VWS V14.00,2013-04-08 04:57:00,
2013-04-08 01:02:00,51.1,33.6,30.06,ENE,63,0.0,0.0,51,0.00,,OVC100,0.00,VWS V14.00,2013-04-08 05:02:00,
2013-04-08 01:07:00,51.1,34.1,30.06,ENE,63,0.0,2.7,52,0.00,,OVC100,0.00,VWS V14.00,2013-04-08 05:07:00,
2013-04-08 01:12:00,51.1,34.1,30.06,ENE,63,0.0,0.0,52,0.00,,OVC100,0.00,VWS V14.00,2013-04-08 05:12:00,
2013-04-08 01:17:00,50.3,33.8,30.06,East,81,3.9,4.8,53,0.00,,OVC100,0.00,VWS V14.00,2013-04-08 05:17:00,
2013-04-08 01:22:00,50.3,33.8,30.06,ESE,119,3.0,3.2,53,0.00,,OVC100,0.00,VWS V14.00,2013-04-08 05:22:00,
2013-04-08 01:27:00,50.5,34.0,30.06,ESE,108,2.5,2.7,53,0.00,,OVC100,0.00,VWS V14.00,2013-04-08 05:27:00,
2013-04-08 01:33:00,50.7,34.2,30.06,ESE,108,0.0,2.7,53,0.00,,OVC100,0.00,VWS V14.00,2013-04-08 05:33:00,
2013-04-08 01:38:00,49.6,33.6,30.06,WNW,290,2.5,3.2,54,0.00,,OVC100,0.00,VWS V14.00,2013-04-08 05:38:00,
2013-04-08 01:43:00,49.4,33.9,30.06,WSW,251,0.0,0.0,55,0.00,,OVC100,0.00,VWS V14.00,2013-04-08 05:43:00,
2013-04-08 01:48:00,48.8,33.8,30.06,South,171,3.0,3.2,56,0.00,,OVC100,0.00,VWS V14.00,2013-04-08 05:48:00,
2013-04-08 01:53:00,48.8,34.3,30.06,NE,48,3.0,3.2,57,0.00,,OVC100,0.00,VWS V14.00,2013-04-08 05:53:00,
2013-04-08 01:58:00,48.5,34.4,30.06,NE,55,3.0,3.8,58,0.00,,OVC100,0.00,VWS V14.00,2013-04-08 05:58:00,
2013-04-08 02:03:00,48.5,34.4,30.06,SE,137,0.0,0.0,58,0.00,,SCT100,0.00,VWS V14.00,2013-04-08 06:03:00,
2013-04-08 02:08:00,48.8,34.3,30.06,ESE,121,0.0,2.7,57,0.00,,SCT100,0.00,VWS V14.00,2013-04-08 06:08:00,
2013-04-08 02:13:00,48.8,34.3,30.06,East,94,3.4,3.8,57,0.00,,SCT100,0.00,VWS V14.00,2013-04-08 06:13:00,
2013-04-08 02:19:00,48.5,33.9,30.06,NE,52,2.5,3.2,57,0.00,,SCT100,0.00,VWS V14.00,2013-04-08 06:19:00,
2013-04-08 02:24:00,48.1,34.0,30.06,NE,52,0.0,0.0,58,0.00,,SCT100,0.00,VWS V14.00,2013-04-08 06:24:00,
2013-04-08 02:29:00,48.1,33.6,30.06,NE,55,2.5,2.7,57,0.00,,SCT100,0.00,VWS V14.00,2013-04-08 06:29:00,
2013-04-08 02:34:00,48.3,34.2,30.06,NE,47,0.0,0.0,58,0.00,,SCT100,0.00,VWS V14.00,2013-04-08 06:34:00,
2013-04-08 02:39:00,48.3,34.2,30.06,NE,50,0.0,3.2,58,0.00,,SCT100,0.00,VWS V14.00,2013-04-08 06:39:00,
2013-04-08 02:44:00,48.3,34.2,30.06,NE,50,0.0,0.0,58,0.00,,SCT100,0.00,VWS V14.00,2013-04-08 06:44:00,
2013-04-08 02:49:00,48.3,34.2,30.06,NE,50,2.5,2.7,58,0.00,,SCT100,0.00,VWS V14.00,2013-04-08 06:49:00,
2013-04-08 02:54:00,48.1,33.6,30.06,NE,50,3.0,3.2,57,0.00,,SCT100,0.00,VWS V14.00,2013-04-08 06:54:00,
2013-04-08 02:59:00,48.1,34.0,30.06,NE,50,0.0,2.7,58,0.00,,SCT100,0.00,VWS V14.00,2013-04-08 06:59:00,
2013-04-08 03:05:00,47.9,33.8,30.06,NE,50,0.0,2.7,58,0.00,,SCT100,0.00,VWS V14.00,2013-04-08 07:05:00,
2013-04-08 03:09:00,47.5,33.5,30.06,NW,310,0.0,0.0,58,0.00,,SCT100,0.00,VWS V14.00,2013-04-08 07:09:00,
2013-04-08 03:14:00,47.3,33.3,30.06,NW,310,0.0,0.0,58,0.00,,SCT100,0.00,VWS V14.00,2013-04-08 07:14:00,
2013-04-08 03:20:00,47.5,33.9,30.06,NW,310,0.0,0.0,59,0.00,,SCT100,0.00,VWS V14.00,2013-04-08 07:20:00,
2013-04-08 03:25:00,47.3,33.3,30.06,NW,310,0.0,0.0,58,0.00,,SCT100,0.00,VWS V14.00,2013-04-08 07:25:00,
2013-04-08 03:30:00,47.5,33.9,30.06,NNE,24,3.0,3.2,59,0.00,,SCT100,0.00,VWS V14.00,2013-04-08 07:30:00,
2013-04-08 03:35:00,47.3,33.8,30.06,NNE,24,2.5,3.2,59,0.00,,SCT100,0.00,VWS V14.00,2013-04-08 07:35:00,
2013-04-08 03:40:00,47.5,33.9,30.06,NNE,24,0.0,0.0,59,0.00,,SCT100,0.00,VWS V14.00,2013-04-08 07:40:00,
2013-04-08 03:45:00,47.5,33.9,30.06,NNE,24,0.0,0.0,59,0.00,,SCT100,0.00,VWS V14.00,2013-04-08 07:45:00,
2013-04-08 03:50:00,47.5,33.9,30.06,NNE,24,0.0,0.0,59,0.00,,SCT100,0.00,VWS V14.00,2013-04-08 07:50:00,
2013-04-08 03:55:00,47.5,33.9,30.06,NNE,24,0.0,0.0,59,0.00,,SCT100,0.00,VWS V14.00,2013-04-08 07:55:00,
2013-04-08 04:00:00,47.5,33.9,30.06,NNE,24,0.0,0.0,59,0.00,,SCT100,0.00,VWS V14.00,2013-04-08 08:00:00,
2013-04-08 04:05:00,47.2,33.6,30.06,NNE,24,0.0,0.0,59,0.00,,CLR,0.00,VWS V14.00,2013-04-08 08:05:00,
2013-04-08 04:10:00,47.0,33.4,30.06,NNE,24,0.0,0.0,59,0.00,,CLR,0.00,VWS V14.00,2013-04-08 08:10:00,
2013-04-08 04:15:00,46.8,33.7,30.06,NNE,24,0.0,0.0,60,0.00,,CLR,0.00,VWS V14.00,2013-04-08 08:15:00,
2013-04-08 04:20:00,47.0,33.8,30.06,NNE,24,0.0,3.2,60,0.00,,CLR,0.00,VWS V14.00,2013-04-08 08:20:00,
2013-04-08 04:25:00,46.8,33.7,30.06,NNE,24,0.0,0.0,60,0.00,,CLR,0.00,VWS V14.00,2013-04-08 08:25:00,
2013-04-08 04:30:00,46.6,33.5,30.06,NNE,24,0.0,0.0,60,0.00,,CLR,0.00,VWS V14.00,2013-04-08 08:30:00,
2013-04-08 04:35:00,46.4,33.7,30.06,NNE,24,0.0,0.0,61,0.00,,CLR,0.00,VWS V14.00,2013-04-08 08:35:00,
2013-04-08 04:40:00,46.0,33.4,30.06,NNE,24,0.0,0.0,61,0.00,,CLR,0.00,VWS V14.00,2013-04-08 08:40:00,
2013-04-08 04:46:00,45.9,33.2,30.06,NNE,24,0.0,0.0,61,0.00,,CLR,0.00,VWS V14.00,2013-04-08 08:46:00,
2013-04-08 04:51:00,45.7,33.4,30.06,NNE,24,0.0,0.0,62,0.00,,CLR,0.00,VWS V14.00,2013-04-08 08:51:00,
2013-04-08 04:56:00,45.7,33.4,30.06,NNE,24,0.0,0.0,62,0.00,,CLR,0.00,VWS V14.00,2013-04-08 08:56:00,
2013-04-08 05:01:00,45.5,33.2,30.06,NNE,24,0.0,0.0,62,0.00,,OVC095,0.00,VWS V14.00,2013-04-08 09:01:00,
2013-04-08 05:06:00,45.1,33.3,30.06,NNE,24,0.0,0.0,63,0.00,,OVC095,0.00,VWS V14.00,2013-04-08 09:06:00,
2013-04-08 05:11:00,44.9,33.1,30.06,NNE,24,0.0,0.0,63,0.00,,OVC095,0.00,VWS V14.00,2013-04-08 09:11:00,
2013-04-08 05:16:00,44.9,33.1,30.06,NNE,24,0.0,0.0,63,0.00,,OVC095,0.00,VWS V14.00,2013-04-08 09:16:00,
2013-04-08 05:21:00,44.9,33.5,30.06,NNE,24,0.0,0.0,64,0.00,,OVC095,0.00,VWS V14.00,2013-04-08 09:21:00,
2013-04-08 05:27:00,44.4,33.4,30.06,NNE,24,0.0,0.0,65,0.00,,OVC095,0.00,VWS V14.00,2013-04-08 09:27:00,
2013-04-08 05:32:00,44.4,33.4,30.06,NNE,24,0.0,0.0,65,0.00,,OVC095,0.00,VWS V14.00,2013-04-08 09:32:00,
2013-04-08 05:37:00,44.4,33.4,30.06,NNE,24,0.0,0.0,65,0.00,,OVC095,0.00,VWS V14.00,2013-04-08 09:37:00,
2013-04-08 05:42:00,44.2,33.2,30.06,NNE,24,0.0,0.0,65,0.00,,OVC095,0.00,VWS V14.00,2013-04-08 09:42:00,
2013-04-08 05:47:00,44.2,33.6,30.06,NNE,24,0.0,0.0,66,0.00,,OVC095,0.00,VWS V14.00,2013-04-08 09:47:00,
2013-04-08 05:52:00,44.0,33.4,30.06,NNE,24,0.0,0.0,66,0.00,,OVC095,0.00,VWS V14.00,2013-04-08 09:52:00,
2013-04-08 05:57:00,43.8,33.2,30.06,NNE,24,2.5,2.7,66,0.00,,OVC095,0.00,VWS V14.00,2013-04-08 09:57:00,
2013-04-08 06:02:00,43.8,33.6,30.09,NNE,24,0.0,0.0,67,0.00,,OVC090,0.00,VWS V14.00,2013-04-08 10:02:00,
2013-04-08 06:07:00,43.8,33.6,30.09,NNE,24,0.0,0.0,67,0.00,,OVC090,0.00,VWS V14.00,2013-04-08 10:07:00,
2013-04-08 06:12:00,43.6,33.8,30.09,NNE,24,0.0,0.0,68,0.00,,OVC090,0.00,VWS V14.00,2013-04-08 10:12:00,
2013-04-08 06:17:00,43.6,33.8,30.09,NNE,24,0.0,0.0,68,0.00,,OVC090,0.00,VWS V14.00,2013-04-08 10:17:00,
2013-04-08 06:23:00,43.6,33.8,30.09,NNE,24,0.0,0.0,68,0.00,,OVC090,0.00,VWS V14.00,2013-04-08 10:23:00,
2013-04-08 06:28:00,43.6,33.8,30.09,NNE,24,0.0,0.0,68,0.00,,OVC090,0.00,VWS V14.00,2013-04-08 10:28:00,
2013-04-08 06:33:00,43.5,33.6,30.09,NNE,24,0.0,0.0,68,0.00,,OVC090,0.00,VWS V14.00,2013-04-08 10:33:00,
2013-04-08 06:38:00,43.3,33.4,30.09,NNE,24,0.0,0.0,68,0.00,,OVC090,0.00,VWS V14.00,2013-04-08 10:38:00,
2013-04-08 06:43:00,43.1,33.3,30.09,NNE,24,0.0,0.0,68,0.00,,OVC090,0.00,VWS V14.00,2013-04-08 10:43:00,
2013-04-08 06:48:00,42.9,33.4,30.09,NNE,24,0.0,0.0,69,0.00,,OVC090,0.00,VWS V14.00,2013-04-08 10:48:00,
2013-04-08 06:53:00,42.7,33.3,30.09,NNE,24,0.0,0.0,69,0.00,,OVC090,0.00,VWS V14.00,2013-04-08 10:53:00,
2013-04-08 06:58:00,42.7,33.6,30.09,NNE,24,0.0,0.0,70,0.00,,OVC090,0.00,VWS V14.00,2013-04-08 10:58:00,
2013-04-08 07:03:00,42.5,33.5,30.09,NNE,24,0.0,0.0,70,0.00,,OVC095,0.00,VWS V14.00,2013-04-08 11:03:00,
2013-04-08 07:08:00,42.5,33.5,30.09,NNE,24,0.0,0.0,70,0.00,,OVC095,0.00,VWS V14.00,2013-04-08 11:08:00,
2013-04-08 07:13:00,42.5,33.8,30.09,NNE,24,0.0,0.0,71,0.00,,OVC095,0.00,VWS V14.00,2013-04-08 11:13:00,
2013-04-08 07:18:00,42.2,33.4,30.09,NNE,24,0.0,0.0,71,0.00,,OVC095,0.00,VWS V14.00,2013-04-08 11:18:00,
2013-04-08 07:23:00,42.0,33.3,30.09,NNE,24,0.0,0.0,71,0.00,,OVC095,0.00,VWS V14.00,2013-04-08 11:23:00,
2013-04-08 07:28:00,42.0,33.6,30.09,NNE,24,0.0,0.0,72,0.00,,OVC095,0.00,VWS V14.00,2013-04-08 11:28:00,
2013-04-08 07:33:00,42.2,33.4,30.09,NNE,24,0.0,0.0,71,0.00,,OVC095,0.00,VWS V14.00,2013-04-08 11:33:00,
2013-04-08 07:39:00,42.3,34.0,30.09,NNE,24,0.0,0.0,72,0.00,,OVC095,0.00,VWS V14.00,2013-04-08 11:39:00,
2013-04-08 07:44:00,42.3,34.0,30.09,NNE,24,0.0,0.0,72,0.00,,OVC095,0.00,VWS V14.00,2013-04-08 11:44:00,
2013-04-08 07:49:00,42.3,34.0,30.12,NNE,24,0.0,0.0,72,0.00,,OVC095,0.00,VWS V14.00,2013-04-08 11:49:00,
2013-04-08 07:54:00,42.3,33.6,30.12,NNE,24,0.0,0.0,71,0.00,,OVC095,0.00,VWS V14.00,2013-04-08 11:54:00,
2013-04-08 07:59:00,42.3,33.6,30.12,NNE,24,0.0,0.0,71,0.00,,OVC095,0.00,VWS V14.00,2013-04-08 11:59:00,
2013-04-08 08:04:00,42.5,34.2,30.12,NNE,24,0.0,0.0,72,0.00,,CLR,0.00,VWS V14.00,2013-04-08 12:04:00,
2013-04-08 08:10:00,42.7,34.3,30.12,NNE,24,0.0,0.0,72,0.00,,CLR,0.00,VWS V14.00,2013-04-08 12:10:00,
2013-04-08 08:15:00,42.7,34.0,30.12,NNE,24,0.0,0.0,71,0.00,,CLR,0.00,VWS V14.00,2013-04-08 12:15:00,
2013-04-08 08:20:00,42.7,34.3,30.12,NNE,24,0.0,0.0,72,0.00,,CLR,0.00,VWS V14.00,2013-04-08 12:20:00,
2013-04-08 08:25:00,42.3,34.3,30.12,NNE,24,2.5,2.7,73,0.00,,CLR,0.00,VWS V14.00,2013-04-08 12:25:00,
2013-04-08 08:30:00,42.2,34.8,30.12,NNE,24,0.0,0.0,75,0.00,,CLR,0.00,VWS V14.00,2013-04-08 12:30:00,
2013-04-08 08:35:00,41.4,34.4,30.12,WNW,295,0.0,0.0,76,0.00,,CLR,0.00,VWS V14.00,2013-04-08 12:35:00,
2013-04-08 08:40:00,42.0,35.3,30.12,WNW,295,0.0,0.0,77,0.00,,CLR,0.00,VWS V14.00,2013-04-08 12:40:00,
2013-04-08 08:45:00,42.5,36.2,30.12,WNW,295,0.0,0.0,78,0.00,,CLR,0.00,VWS V14.00,2013-04-08 12:45:00,
2013-04-08 08:50:00,42.7,36.3,30.12,WNW,295,0.0,0.0,78,0.00,,CLR,0.00,VWS V14.00,2013-04-08 12:50:00,
2013-04-08 08:55:00,43.6,36.9,30.12,WNW,295,0.0,0.0,77,0.00,,CLR,0.00,VWS V14.00,2013-04-08 12:55:00,
2013-04-08 09:00:00,43.8,37.4,30.12,WNW,295,0.0,0.0,78,0.00,,CLR,0.00,VWS V14.00,2013-04-08 13:00:00,
2013-04-08 09:05:00,44.9,38.5,30.12,WNW,295,0.0,0.0,78,0.00,,CLR,0.00,VWS V14.00,2013-04-08 13:05:00,
2013-04-08 09:10:00,45.7,38.9,30.12,WNW,295,0.0,0.0,77,0.00,,CLR,0.00,VWS V14.00,2013-04-08 13:10:00,
2013-04-08 09:15:00,46.0,39.2,30.12,WNW,295,2.5,2.7,77,0.00,,CLR,0.00,VWS V14.00,2013-04-08 13:15:00,
2013-04-08 09:20:00,47.0,39.8,30.12,WNW,286,2.5,2.7,76,0.00,,CLR,0.00,VWS V14.00,2013-04-08 13:20:00,
2013-04-08 09:26:00,47.5,40.4,30.12,West,263,0.0,0.0,76,0.00,,CLR,0.00,VWS V14.00,2013-04-08 13:26:00,
2013-04-08 09:31:00,48.3,40.7,30.12,West,263,3.0,3.2,75,0.00,,CLR,0.00,VWS V14.00,2013-04-08 13:31:00,
2013-04-08 09:36:00,49.0,41.1,30.12,NW,318,3.4,3.8,74,0.00,,CLR,0.00,VWS V14.00,2013-04-08 13:36:00,
2013-04-08 09:41:00,49.8,41.5,30.12,NW,318,2.5,3.8,73,0.00,,CLR,0.00,VWS V14.00,2013-04-08 13:41:00,
2013-04-08 09:46:00,50.5,41.5,30.12,WNW,287,0.0,2.7,71,0.00,,CLR,0.00,VWS V14.00,2013-04-08 13:46:00,
2013-04-08 09:51:00,51.2,42.2,30.12,West,271,0.0,0.0,71,0.00,,CLR,0.00,VWS V14.00,2013-04-08 13:51:00,
2013-04-08 09:56:00,52.0,42.1,30.12,West,266,3.4,3.8,69,0.00,,CLR,0.00,VWS V14.00,2013-04-08 13:56:00,
2013-04-08 10:02:00,52.3,42.5,30.12,WNW,284,2.5,3.2,69,0.00,,CLR,0.00,VWS V14.00,2013-04-08 14:02:00,
2013-04-08 10:07:00,52.9,42.7,30.12,West,280,3.0,3.8,68,0.00,,CLR,0.00,VWS V14.00,2013-04-08 14:07:00,
2013-04-08 10:12:00,53.5,42.8,30.12,WNW,288,3.4,3.8,67,0.00,,CLR,0.00,VWS V14.00,2013-04-08 14:12:00,
2013-04-08 10:17:00,54.2,42.3,30.09,West,280,3.0,3.8,64,0.00,,CLR,0.00,VWS V14.00,2013-04-08 14:17:00,
2013-04-08 10:22:00,55.1,42.8,30.09,WNW,298,3.9,4.3,63,0.00,,CLR,0.00,VWS V14.00,2013-04-08 14:22:00,
2013-04-08 10:27:00,55.5,42.3,30.09,West,276,2.5,4.8,61,0.00,,CLR,0.00,VWS V14.00,2013-04-08 14:27:00,
2013-04-08 10:32:00,56.6,42.5,30.09,WNW,293,3.9,4.3,59,0.00,,CLR,0.00,VWS V14.00,2013-04-08 14:32:00,
2013-04-08 10:37:00,57.2,42.1,30.09,NW,319,3.9,4.8,57,0.00,,CLR,0.00,VWS V14.00,2013-04-08 14:37:00,
2013-04-08 10:42:00,57.7,42.2,30.09,WNW,295,4.4,4.8,56,0.00,,CLR,0.00,VWS V14.00,2013-04-08 14:42:00,
2013-04-08 10:47:00,58.5,42.4,30.09,West,260,3.0,4.8,55,0.00,,CLR,0.00,VWS V14.00,2013-04-08 14:47:00,
2013-04-08 10:52:00,58.8,42.2,30.09,NW,304,3.4,4.3,54,0.00,,CLR,0.00,VWS V14.00,2013-04-08 14:52:00,
2013-04-08 10:57:00,59.6,42.9,30.09,NW,308,4.4,6.4,54,0.00,,CLR,0.00,VWS V14.00,2013-04-08 14:57:00,
2013-04-08 11:02:00,60.5,42.8,30.09,NW,313,3.4,3.8,52,0.00,,CLR,0.00,VWS V14.00,2013-04-08 15:02:00,
2013-04-08 11:08:00,61.1,42.8,30.09,NNW,331,3.4,4.8,51,0.00,,CLR,0.00,VWS V14.00,2013-04-08 15:08:00,
2013-04-08 11:13:00,61.6,42.3,30.09,NNW,337,5.9,6.4,49,0.00,,CLR,0.00,VWS V14.00,2013-04-08 15:13:00,
2013-04-08 11:18:00,62.5,43.2,30.09,WNW,287,3.4,3.8,49,0.00,,CLR,0.00,VWS V14.00,2013-04-08 15:18:00,
2013-04-08 11:23:00,63.8,44.3,30.09,WNW,282,3.0,4.3,49,0.00,,CLR,0.00,VWS V14.00,2013-04-08 15:23:00,
2013-04-08 11:28:00,64.6,44.5,30.09,NW,304,5.4,5.9,48,0.00,,CLR,0.00,VWS V14.00,2013-04-08 15:28:00,
2013-04-08 11:33:00,65.3,44.6,30.09,West,271,2.5,4.3,47,0.00,,CLR,0.00,VWS V14.00,2013-04-08 15:33:00,
2013-04-08 11:38:00,66.4,44.5,30.09,West,277,3.9,7.5,45,0.00,,CLR,0.00,VWS V14.00,2013-04-08 15:38:00,
2013-04-08 11:43:00,67.4,44.7,30.09,South,186,4.4,9.1,44,0.00,,CLR,0.00,VWS V14.00,2013-04-08 15:43:00,
2013-04-08 11:48:00,67.7,43.2,30.09,SSW,207,9.1,9.9,41,0.00,,CLR,0.00,VWS V14.00,2013-04-08 15:48:00,
2013-04-08 11:53:00,68.1,42.9,30.09,ESE,111,6.9,12.6,40,0.00,,CLR,0.00,VWS V14.00,2013-04-08 15:53:00,
2013-04-08 11:59:00,68.5,43.2,30.09,SSW,192,6.4,10.5,40,0.00,,CLR,0.00,VWS V14.00,2013-04-08 15:59:00,
2013-04-08 12:04:00,69.2,43.9,30.06,SSE,164,8.4,9.7,40,0.00,,SCT060,0.00,VWS V14.00,2013-04-08 16:04:00,
2013-04-08 12:09:00,69.6,43.6,30.06,SE,131,4.4,7.0,39,0.00,,SCT060,0.00,VWS V14.00,2013-04-08 16:09:00,
2013-04-08 12:14:00,70.3,43.5,30.06,South,191,9.6,12.6,38,0.00,,SCT060,0.00,VWS V14.00,2013-04-08 16:14:00,
2013-04-08 12:19:00,70.5,43.7,30.06,South,190,9.1,9.9,38,0.00,,SCT060,0.00,VWS V14.00,2013-04-08 16:19:00,
2013-04-08 12:24:00,70.5,43.0,30.06,SSW,209,12.5,13.7,37,0.00,,SCT060,0.00,VWS V14.00,2013-04-08 16:24:00,
2013-04-08 12:29:00,70.7,43.2,30.06,SSW,213,8.9,11.0,37,0.00,,SCT060,0.00,VWS V14.00,2013-04-08 16:29:00,
2013-04-08 12:34:00,71.3,43.0,30.06,SE,135,6.9,10.5,36,0.00,,SCT060,0.00,VWS V14.00,2013-04-08 16:34:00,
2013-04-08 12:39:00,71.3,43.0,30.06,SW,224,8.4,15.8,36,0.00,,SCT060,0.00,VWS V14.00,2013-04-08 16:39:00,
2013-04-08 12:44:00,71.8,43.5,30.06,SSW,206,11.6,12.6,36,0.00,,SCT060,0.00,VWS V14.00,2013-04-08 16:44:00,
2013-04-08 12:49:00,72.6,44.1,30.06,South,179,6.9,10.5,36,0.00,,SCT060,0.00,VWS V14.00,2013-04-08 16:49:00,
2013-04-08 12:55:00,72.4,43.2,30.06,WSW,245,8.9,9.9,35,0.00,,SCT060,0.00,VWS V14.00,2013-04-08 16:55:00,
2013-04-08 13:00:00,72.8,42.8,30.06,South,191,12.1,16.4,34,0.00,,SCT060,0.00,VWS V14.00,2013-04-08 17:00:00,
2013-04-08 13:05:00,72.4,43.2,30.06,South,178,8.4,12.6,35,0.00,,FEW060,0.00,VWS V14.00,2013-04-08 17:05:00,
2013-04-08 13:10:00,72.2,43.0,30.06,SSW,209,8.4,9.1,35,0.00,,FEW060,0.00,VWS V14.00,2013-04-08 17:10:00,
2013-04-08 13:15:00,73.1,43.9,30.06,WNW,290,6.9,7.5,35,0.00,,FEW060,0.00,VWS V14.00,2013-04-08 17:15:00,
2013-04-08 13:20:00,74.1,43.9,30.06,SE,135,5.9,7.5,34,0.00,,FEW060,0.00,VWS V14.00,2013-04-08 17:20:00,
2013-04-08 13:25:00,72.2,41.5,30.06,SE,139,3.9,18.0,33,0.00,,FEW060,0.00,VWS V14.00,2013-04-08 17:25:00,
2013-04-08 13:30:00,71.3,40.7,30.06,SE,132,3.4,6.4,33,0.00,,FEW060,0.00,VWS V14.00,2013-04-08 17:30:00,
2013-04-08 13:35:00,70.9,40.4,30.06,South,177,8.4,12.6,33,0.00,,OVC060,0.00,VWS V14.00,2013-04-08 17:35:00,
2013-04-08 13:40:00,70.9,41.9,30.06,WSW,252,6.9,8.1,35,0.00,,OVC060,0.00,VWS V14.00,2013-04-08 17:40:00,
2013-04-08 13:45:00,72.2,43.0,30.06,WSW,239,3.9,7.0,35,0.00,,OVC060,0.00,VWS V14.00,2013-04-08 17:45:00,
2013-04-08 13:51:00,71.6,41.8,30.03,WSW,246,6.9,10.5,34,0.00,,OVC060,0.00,VWS V14.00,2013-04-08 17:51:00,
2013-04-08 13:56:00,72.2,41.5,30.03,SSW,207,9.6,18.0,33,0.00,,OVC060,0.00,VWS V14.00,2013-04-08 17:56:00,
2013-04-08 14:01:00,72.2,41.5,30.03,SSW,197,6.4,8.1,33,0.00,,OVC060,0.00,VWS V14.00,2013-04-08 18:01:00,
2013-04-08 14:06:00,73.7,42.8,30.03,SE,140,8.4,12.6,33,0.00,,BKN060,0.00,VWS V14.00,2013-04-08 18:06:00,
2013-04-08 14:11:00,72.6,41.8,30.03,South,178,6.9,10.5,33,0.00,,BKN060,0.00,VWS V14.00,2013-04-08 18:11:00,
2013-04-08 14:16:00,74.2,43.3,30.03,SSW,206,6.9,7.5,33,0.00,,BKN060,0.00,VWS V14.00,2013-04-08 18:16:00,
2013-04-08 14:21:00,73.7,42.0,30.03,SW,225,6.9,9.1,32,0.00,,BKN060,0.00,VWS V14.00,2013-04-08 18:21:00,
2013-04-08 14:26:00,73.9,42.2,30.03,SSW,199,9.6,12.6,32,0.00,,BKN060,0.00,VWS V14.00,2013-04-08 18:26:00,
2013-04-08 14:31:00,73.7,42.0,30.03,SSE,158,6.9,9.7,32,0.00,,BKN060,0.00,VWS V14.00,2013-04-08 18:31:00,
2013-04-08 14:37:00,73.3,41.7,30.03,SSW,201,6.9,9.9,32,0.00,,BKN060,0.00,VWS V14.00,2013-04-08 18:37:00,
2013-04-08 14:42:00,73.3,41.7,30.03,SSW,213,4.4,12.6,32,0.00,,BKN060,0.00,VWS V14.00,2013-04-08 18:42:00,
2013-04-08 14:47:00,73.5,41.9,30.03,SSW,210,8.4,14.8,32,0.00,,BKN060,0.00,VWS V14.00,2013-04-08 18:47:00,
2013-04-08 14:52:00,72.9,41.4,30.03,SSW,207,8.9,13.2,32,0.00,,BKN060,0.00,VWS V14.00,2013-04-08 18:52:00,
2013-04-08 14:57:00,73.9,42.2,30.03,SSW,202,9.1,13.2,32,0.00,,BKN060,0.00,VWS V14.00,2013-04-08 18:57:00,